San Francisco, CA

6:46 PM PDT on August 29, 2016 (GMT -0700)
San Francisco International | | Change Station

Elev 16 ft 37.62 °N, 122.37 °W | Updated 50 minutes ago

Scattered Clouds
Scattered Clouds
67 °F
Feels Like 67 °F
N
22
Wind Variable Wind from West
Gusts 32 mph

Today
High -- | Low -- °F
--% Chance of Precip.
Yesterday
High -- | Low -- °F
Precip. -- in
Pressure 30.03 in
Visibility 10.0 miles
Clouds Few 1700 ft
Few 11000 ft
Scattered Clouds 18000 ft
Dew Point 54 °F
Humidity 63%
Rainfall 0.00 in
Snow Depth Not available.
6:37 AM 7:42 PM
Waning Crescent, 6% visible
METAR KSFO 300056Z 27019G28KT 10SM FEW017 FEW110 SCT180 19/12 A3003 RMK AO2 PK WND 26030/0042 SLP167 T01940122
Pressure 30.03 in
Visibility 10.0 miles
Clouds Few 1700 ft
Few 11000 ft
Scattered Clouds 18000 ft
Dew Point 54 °F
Humidity 63%
Rainfall 0.00 in
Snow Depth Not available.
6:37 AM 7:42 PM
Waning Crescent, 6% visible
METAR KSFO 300056Z 27019G28KT 10SM FEW017 FEW110 SCT180 19/12 A3003 RMK AO2 PK WND 26030/0042 SLP167 T01940122

10-Day Weather Forecast

Almanac

Astronomy

Aug. 29, 2016 Rise Set
Actual Time
Civil Twilight
Nautical Twilight
Astronomical Twilight
Moon
Length of Visible Light
Length of Day
Tomorrow will be .
, % of the Moon is Illuminated

Today's Extremes

State Highs State Lows

Community

WunderPhotos

Upload Photos

1,935,715 photos uploaded!

WunderBlog® & News

Nearby

Air Quality

  Air Quality AQ Index Pollutant
Not available.

Snow Depth

Station Depth Elevation

Earthquake Activity

City Distance Mag. Time & Date
Minimum magnitude displayed is 2.5.

Coastal Water Temperatures

Place Temperature

Stations

Nearby Weather Stations

Station Location Temp. Windchill Dew Point Humidity Wind Precip. Elev Updated Type
                   

Watches & Warnings

There are currently no watches in effect.